Time;durP1;ratioP1;P1;durP2;ratioP2;P2;SDS_P1;SDS_P2;PMS_P1;PMS_P2;Temp;Humidity;BMP_temperature;BMP_pressure;BME280_temperature;BME280_humidity;BME280_pressure;Samples;Min_cycle;Max_cycle;Signal;HPM_P1;HPM_P2
2022/08/09 00:01:47;;;;;;;4.07;2.70;;;;;;;;;;4975273;28;20018;-77
2022/08/09 00:04:22;;;;;;;3.60;2.85;;;;;;;;;;4966686;28;20043;-76
2022/08/09 00:06:49;;;;;;;7.70;3.25;;;;;;;;;;4973042;28;20397;-76
2022/08/09 00:09:16;;;;;;;5.40;2.70;;;;;;;;;;4968297;28;20065;-76
2022/08/09 00:11:43;;;;;;;4.18;2.40;;;;;;;;;;4971431;28;20018;-78
2022/08/09 00:14:09;;;;;;;8.00;3.83;;;;;;;;;;4970611;28;20422;-76
2022/08/09 00:16:36;;;;;;;5.22;3.00;;;;;;;;;;4973130;28;20030;-77
2022/08/09 00:19:02;;;;;;;3.60;3.30;;;;;;;;;;4963745;28;20165;-76
2022/08/09 00:21:29;;;;;;;3.40;2.80;;;;;;;;;;4969387;28;20043;-77
2022/08/09 00:23:55;;;;;;;5.35;3.42;;;;;;;;;;4967076;28;20729;-76
2022/08/09 00:26:21;;;;;;;4.45;2.90;;;;;;;;;;4967616;28;20034;-77
2022/08/09 00:28:47;;;;;;;8.75;3.70;;;;;;;;;;4970453;28;20069;-75
2022/08/09 00:31:14;;;;;;;5.60;3.30;;;;;;;;;;4967415;28;20031;-77
2022/08/09 00:33:41;;;;;;;5.03;3.10;;;;;;;;;;4972226;28;20023;-76
2022/08/09 00:36:08;;;;;;;4.78;3.65;;;;;;;;;;4970949;28;20537;-76
2022/08/09 00:38:34;;;;;;;5.45;3.20;;;;;;;;;;4971426;28;20469;-76
2022/08/09 00:41:00;;;;;;;3.88;3.28;;;;;;;;;;4969516;28;20038;-76
2022/08/09 00:43:26;;;;;;;3.97;3.58;;;;;;;;;;4976158;28;20061;-76
2022/08/09 00:45:52;;;;;;;3.42;2.80;;;;;;;;;;4964425;28;20034;-76
2022/08/09 00:48:18;;;;;;;4.45;2.88;;;;;;;;;;4967750;28;20112;-77
2022/08/09 00:50:44;;;;;;;3.53;3.03;;;;;;;;;;4970172;28;20034;-76
2022/08/09 00:53:11;;;;;;;6.13;3.28;;;;;;;;;;4973396;28;20029;-76
2022/08/09 00:55:37;;;;;;;4.50;3.20;;;;;;;;;;4971833;28;20497;-77
2022/08/09 00:58:03;;;;;;;3.38;3.08;;;;;;;;;;4968654;28;20034;-76
2022/08/09 01:00:29;;;;;;;3.08;2.70;;;;;;;;;;4969460;28;20026;-77
2022/08/09 01:03:12;;;;;;;4.15;2.90;;;;;;;;;;4972135;28;20027;-77
2022/08/09 01:05:41;;;;;;;4.85;3.45;;;;;;;;;;4965614;28;20051;-76
2022/08/09 01:08:10;;;;;;;3.17;2.88;;;;;;;;;;4968535;28;20069;-76
2022/08/09 01:10:48;;;;;;;3.13;2.83;;;;;;;;;;4979973;28;20026;-77
2022/08/09 01:13:19;;;;;;;3.60;2.72;;;;;;;;;;4973220;28;20085;-76
2022/08/09 01:15:46;;;;;;;3.50;2.80;;;;;;;;;;4968714;28;20090;-76
2022/08/09 01:18:16;;;;;;;5.05;2.80;;;;;;;;;;4966494;28;20026;-76
2022/08/09 01:21:01;;;;;;;6.13;2.60;;;;;;;;;;4971153;28;20062;-76
2022/08/09 01:23:39;;;;;;;5.45;2.85;;;;;;;;;;4969030;28;20112;-77
2022/08/09 01:26:05;;;;;;;6.30;2.67;;;;;;;;;;4968496;28;20379;-76
2022/08/09 01:28:31;;;;;;;3.65;2.60;;;;;;;;;;4968889;28;20074;-76
2022/08/09 01:30:58;;;;;;;5.95;2.95;;;;;;;;;;4969373;28;20110;-77
2022/08/09 01:33:26;;;;;;;3.47;2.83;;;;;;;;;;4965796;28;20067;-78
2022/08/09 01:36:10;;;;;;;3.13;2.53;;;;;;;;;;4968212;28;20034;-76
2022/08/09 01:38:40;;;;;;;3.50;2.65;;;;;;;;;;4965577;28;20034;-77
2022/08/09 01:41:11;;;;;;;2.90;2.58;;;;;;;;;;4966673;28;20026;-77
2022/08/09 01:43:39;;;;;;;4.65;2.90;;;;;;;;;;4966651;28;20084;-77
2022/08/09 01:46:05;;;;;;;3.88;2.65;;;;;;;;;;4964168;28;20073;-77
2022/08/09 01:48:33;;;;;;;3.47;2.78;;;;;;;;;;4973518;28;20094;-77
2022/08/09 01:50:59;;;;;;;3.00;2.60;;;;;;;;;;4967472;28;20027;-77
2022/08/09 01:53:26;;;;;;;4.07;2.80;;;;;;;;;;4967593;28;20026;-77
2022/08/09 01:55:53;;;;;;;3.40;2.60;;;;;;;;;;4965530;28;20419;-77
2022/08/09 01:58:19;;;;;;;4.88;3.00;;;;;;;;;;4968457;28;20026;-76
2022/08/09 02:00:46;;;;;;;3.85;2.97;;;;;;;;;;4976462;28;20114;-77
2022/08/09 02:03:14;;;;;;;5.47;3.08;;;;;;;;;;4967643;28;20098;-76
2022/08/09 02:05:40;;;;;;;3.47;2.72;;;;;;;;;;4968975;28;20101;-76
2022/08/09 02:08:08;;;;;;;4.13;2.83;;;;;;;;;;4970744;28;20041;-76
2022/08/09 02:10:39;;;;;;;4.65;2.83;;;;;;;;;;4967999;28;20109;-76
2022/08/09 02:13:06;;;;;;;5.38;2.90;;;;;;;;;;4966343;28;20033;-75
2022/08/09 02:15:34;;;;;;;3.40;3.00;;;;;;;;;;4965859;28;20126;-76
2022/08/09 02:18:01;;;;;;;3.05;2.75;;;;;;;;;;4973640;28;20026;-77
2022/08/09 02:20:28;;;;;;;4.47;2.83;;;;;;;;;;4970666;28;20026;-77
2022/08/09 02:23:18;;;;;;;5.63;2.80;;;;;;;;;;4967089;28;20034;-76
2022/08/09 02:25:45;;;;;;;5.90;2.85;;;;;;;;;;4950732;28;20035;-76
2022/08/09 02:28:14;;;;;;;3.35;2.65;;;;;;;;;;4965667;28;20023;-76
2022/08/09 02:30:45;;;;;;;3.45;3.15;;;;;;;;;;4962377;28;20378;-77
2022/08/09 02:33:14;;;;;;;5.55;2.90;;;;;;;;;;4966084;28;20120;-77
2022/08/09 02:35:40;;;;;;;4.68;3.17;;;;;;;;;;4964158;28;20035;-76
2022/08/09 02:38:09;;;;;;;4.25;3.75;;;;;;;;;;4963823;28;20378;-77
2022/08/09 02:40:36;;;;;;;3.65;3.00;;;;;;;;;;4966654;28;20034;-76
2022/08/09 02:43:03;;;;;;;3.75;3.05;;;;;;;;;;4964665;28;20035;-76
2022/08/09 02:45:30;;;;;;;5.43;3.20;;;;;;;;;;4965812;28;20026;-77
2022/08/09 02:48:00;;;;;;;4.28;2.90;;;;;;;;;;4973272;28;20033;-75
2022/08/09 02:50:28;;;;;;;3.85;2.90;;;;;;;;;;4956861;28;20055;-75
2022/08/09 02:52:59;;;;;;;3.30;2.88;;;;;;;;;;4969699;28;20101;-77
2022/08/09 02:55:26;;;;;;;4.40;2.90;;;;;;;;;;4971183;28;20034;-77
2022/08/09 02:57:52;;;;;;;4.28;3.13;;;;;;;;;;4968926;28;20571;-77
2022/08/09 03:00:18;;;;;;;4.38;3.00;;;;;;;;;;4969424;28;20117;-77
2022/08/09 03:02:47;;;;;;;5.03;3.45;;;;;;;;;;4966805;28;20398;-76
2022/08/09 03:05:14;;;;;;;4.38;3.22;;;;;;;;;;4965199;28;20078;-76
2022/08/09 03:07:41;;;;;;;4.07;3.00;;;;;;;;;;4969612;28;20023;-77
2022/08/09 03:10:08;;;;;;;5.00;3.47;;;;;;;;;;4966106;28;20167;-77
2022/08/09 03:12:37;;;;;;;6.70;3.15;;;;;;;;;;4968219;28;20101;-76
2022/08/09 03:15:03;;;;;;;4.03;3.10;;;;;;;;;;4966147;28;20081;-76
2022/08/09 03:17:29;;;;;;;7.78;3.50;;;;;;;;;;4968111;28;20030;-76
2022/08/09 03:19:58;;;;;;;5.40;3.28;;;;;;;;;;4971184;28;20027;-77
2022/08/09 03:22:25;;;;;;;3.90;3.03;;;;;;;;;;4973743;28;20027;-77
2022/08/09 03:24:51;;;;;;;6.05;3.00;;;;;;;;;;4969462;28;20027;-76
2022/08/09 03:27:17;;;;;;;3.22;2.90;;;;;;;;;;4967502;28;20034;-77
2022/08/09 03:29:44;;;;;;;3.50;2.75;;;;;;;;;;4975616;28;20041;-77
2022/08/09 03:32:10;;;;;;;4.57;3.25;;;;;;;;;;4974002;28;20031;-76
2022/08/09 03:34:36;;;;;;;5.07;3.35;;;;;;;;;;4973564;28;20034;-77
2022/08/09 03:37:02;;;;;;;4.30;3.10;;;;;;;;;;4970333;28;20027;-77
2022/08/09 03:39:28;;;;;;;4.70;2.95;;;;;;;;;;4978120;28;20101;-76
2022/08/09 03:41:54;;;;;;;3.80;3.13;;;;;;;;;;4976099;28;20095;-76
2022/08/09 03:44:23;;;;;;;4.93;3.20;;;;;;;;;;4966955;28;20386;-77
2022/08/09 03:46:49;;;;;;;4.45;3.10;;;;;;;;;;4967497;28;20030;-76
2022/08/09 03:49:16;;;;;;;3.80;3.13;;;;;;;;;;4976060;28;20054;-76
2022/08/09 03:51:44;;;;;;;4.63;2.97;;;;;;;;;;4968797;28;20030;-77
2022/08/09 03:54:10;;;;;;;3.65;3.08;;;;;;;;;;4971535;28;20042;-77
2022/08/09 03:56:37;;;;;;;5.60;3.60;;;;;;;;;;4975239;28;20077;-75
2022/08/09 03:59:03;;;;;;;4.97;3.40;;;;;;;;;;4967832;28;20035;-77
2022/08/09 04:01:30;;;;;;;3.95;3.42;;;;;;;;;;4967465;28;20306;-76
2022/08/09 04:03:56;;;;;;;4.50;3.38;;;;;;;;;;4969513;28;20041;-76
2022/08/09 04:06:22;;;;;;;3.63;3.20;;;;;;;;;;4972372;28;20057;-75
2022/08/09 04:08:48;;;;;;;4.63;3.30;;;;;;;;;;4974174;28;20058;-75
2022/08/09 04:11:14;;;;;;;4.13;2.90;;;;;;;;;;4972185;28;20548;-76
2022/08/09 04:13:40;;;;;;;9.05;3.65;;;;;;;;;;4965156;28;20058;-76
2022/08/09 04:16:06;;;;;;;4.63;3.42;;;;;;;;;;4969388;28;20133;-76
2022/08/09 04:18:32;;;;;;;5.13;3.47;;;;;;;;;;4969661;28;20433;-77
2022/08/09 04:20:58;;;;;;;5.95;3.42;;;;;;;;;;4972878;28;20389;-76
2022/08/09 04:23:25;;;;;;;3.95;3.38;;;;;;;;;;4975478;28;20041;-75
2022/08/09 04:25:51;;;;;;;4.70;3.22;;;;;;;;;;4972400;28;20026;-76
2022/08/09 04:28:20;;;;;;;3.63;3.30;;;;;;;;;;4970100;28;20058;-76
2022/08/09 04:30:46;;;;;;;5.53;3.20;;;;;;;;;;4969848;28;20101;-76
2022/08/09 04:33:12;;;;;;;4.30;3.58;;;;;;;;;;4968434;28;20473;-76
2022/08/09 04:35:39;;;;;;;3.42;2.97;;;;;;;;;;4971456;28;20097;-76
2022/08/09 04:38:05;;;;;;;5.07;3.15;;;;;;;;;;4970497;28;20031;-76
2022/08/09 04:40:47;;;;;;;3.72;2.97;;;;;;;;;;4972888;28;20090;-76
2022/08/09 04:43:14;;;;;;;3.92;3.40;;;;;;;;;;4976836;28;20039;-76
2022/08/09 04:45:40;;;;;;;4.65;3.38;;;;;;;;;;4970468;28;20030;-77
2022/08/09 04:48:06;;;;;;;4.75;3.55;;;;;;;;;;4973232;28;20518;-77
2022/08/09 04:50:32;;;;;;;4.95;3.47;;;;;;;;;;4967279;28;20038;-78
2022/08/09 04:52:59;;;;;;;3.83;3.42;;;;;;;;;;4971693;28;20111;-77
2022/08/09 04:55:25;;;;;;;6.78;3.20;;;;;;;;;;4969791;28;20027;-78
2022/08/09 04:57:51;;;;;;;5.70;3.28;;;;;;;;;;4970230;28;20037;-78
2022/08/09 05:00:17;;;;;;;6.20;3.47;;;;;;;;;;4965003;28;20873;-77
2022/08/09 05:02:44;;;;;;;5.25;3.80;;;;;;;;;;4967547;28;20037;-78
2022/08/09 05:05:10;;;;;;;6.57;3.65;;;;;;;;;;4966302;28;20250;-78
2022/08/09 05:07:36;;;;;;;8.10;3.67;;;;;;;;;;4972380;28;20355;-77
2022/08/09 05:10:03;;;;;;;5.68;3.53;;;;;;;;;;4970034;28;20043;-78
2022/08/09 05:12:30;;;;;;;6.65;4.80;;;;;;;;;;4970473;28;20031;-78
2022/08/09 05:14:56;;;;;;;6.68;3.58;;;;;;;;;;4967799;28;20542;-77
2022/08/09 05:17:22;;;;;;;6.72;3.60;;;;;;;;;;4964603;28;20474;-78
2022/08/09 05:19:49;;;;;;;4.60;3.58;;;;;;;;;;4966038;28;20039;-77
2022/08/09 05:22:15;;;;;;;4.88;3.30;;;;;;;;;;4968056;28;20023;-78
2022/08/09 05:24:41;;;;;;;6.20;3.42;;;;;;;;;;4968722;28;20041;-79
2022/08/09 05:27:07;;;;;;;4.70;3.50;;;;;;;;;;4974657;28;20023;-78
2022/08/09 05:29:33;;;;;;;6.35;3.55;;;;;;;;;;4968586;28;20145;-78
2022/08/09 05:32:00;;;;;;;4.95;3.60;;;;;;;;;;4966652;28;20030;-78
2022/08/09 05:34:26;;;;;;;5.57;3.70;;;;;;;;;;4968199;28;20101;-78
2022/08/09 05:36:55;;;;;;;4.85;3.70;;;;;;;;;;4969978;28;20023;-78
2022/08/09 05:39:21;;;;;;;5.43;4.05;;;;;;;;;;4968214;28;20053;-78
2022/08/09 05:41:47;;;;;;;8.43;4.05;;;;;;;;;;4963116;28;20041;-78
2022/08/09 05:44:13;;;;;;;5.47;3.72;;;;;;;;;;4974794;28;20035;-78
2022/08/09 05:46:39;;;;;;;7.93;3.78;;;;;;;;;;4979173;28;20033;-77
2022/08/09 05:49:05;;;;;;;5.18;3.67;;;;;;;;;;4976069;28;20018;-77
2022/08/09 05:51:31;;;;;;;5.22;3.75;;;;;;;;;;4965901;28;20138;-77
2022/08/09 05:53:57;;;;;;;7.65;4.20;;;;;;;;;;4970164;28;20031;-77
2022/08/09 05:56:24;;;;;;;4.30;3.90;;;;;;;;;;4969483;28;20066;-78
2022/08/09 05:58:53;;;;;;;7.57;3.95;;;;;;;;;;4958791;28;20055;-77
2022/08/09 06:01:19;;;;;;;4.32;3.50;;;;;;;;;;4964758;28;20425;-77
2022/08/09 06:03:45;;;;;;;4.32;3.70;;;;;;;;;;4970415;28;20037;-77
2022/08/09 06:06:11;;;;;;;4.30;3.53;;;;;;;;;;4965709;28;20440;-77
2022/08/09 06:08:37;;;;;;;7.40;4.63;;;;;;;;;;4969093;28;20442;-78
2022/08/09 06:11:03;;;;;;;4.40;3.65;;;;;;;;;;4965447;28;20359;-78
2022/08/09 06:13:29;;;;;;;6.22;3.58;;;;;;;;;;4968742;28;20027;-78
2022/08/09 06:15:55;;;;;;;6.25;3.97;;;;;;;;;;4973039;28;20504;-77
2022/08/09 06:18:22;;;;;;;5.28;3.58;;;;;;;;;;4971327;28;20113;-77
2022/08/09 06:20:48;;;;;;;6.70;4.35;;;;;;;;;;4970763;28;20034;-77
2022/08/09 06:23:14;;;;;;;6.10;4.05;;;;;;;;;;4971823;28;20035;-78
2022/08/09 06:25:40;;;;;;;4.07;3.67;;;;;;;;;;4978802;28;20027;-77
2022/08/09 06:28:06;;;;;;;6.95;3.35;;;;;;;;;;4976864;28;20023;-77
2022/08/09 06:30:33;;;;;;;5.40;3.40;;;;;;;;;;4971365;28;20508;-77
2022/08/09 06:32:59;;;;;;;6.65;3.70;;;;;;;;;;4974423;28;20391;-78
2022/08/09 06:35:25;;;;;;;4.43;3.50;;;;;;;;;;4977258;28;20033;-78
2022/08/09 06:37:51;;;;;;;3.60;3.28;;;;;;;;;;4975872;28;20031;-78
2022/08/09 06:40:17;;;;;;;4.10;3.70;;;;;;;;;;4977238;28;20019;-78
2022/08/09 06:42:43;;;;;;;6.38;3.78;;;;;;;;;;4981778;28;20053;-79
2022/08/09 06:45:09;;;;;;;6.20;3.50;;;;;;;;;;4972998;28;20616;-77
2022/08/09 06:47:36;;;;;;;6.35;3.97;;;;;;;;;;4973637;28;20399;-77
2022/08/09 06:50:02;;;;;;;5.90;3.42;;;;;;;;;;4979363;28;20109;-79
2022/08/09 06:52:28;;;;;;;4.57;3.78;;;;;;;;;;4971575;28;20030;-78
2022/08/09 06:54:54;;;;;;;4.82;3.63;;;;;;;;;;4975383;28;20030;-78
2022/08/09 06:57:20;;;;;;;5.32;3.55;;;;;;;;;;4976990;28;20366;-77
2022/08/09 06:59:46;;;;;;;7.50;3.53;;;;;;;;;;4977441;28;20027;-78
2022/08/09 07:02:12;;;;;;;4.78;3.80;;;;;;;;;;4966627;28;20462;-77
2022/08/09 07:04:38;;;;;;;5.00;3.85;;;;;;;;;;4983520;28;20051;-77
2022/08/09 07:07:04;;;;;;;7.63;3.30;;;;;;;;;;4976420;28;20404;-78
2022/08/09 07:09:31;;;;;;;5.50;3.15;;;;;;;;;;4972846;28;20086;-78
2022/08/09 07:11:57;;;;;;;4.38;2.90;;;;;;;;;;4972364;28;20027;-77
2022/08/09 07:14:23;;;;;;;5.70;3.42;;;;;;;;;;4971739;28;20023;-78
2022/08/09 07:16:49;;;;;;;5.28;3.35;;;;;;;;;;4976227;28;20110;-77
2022/08/09 07:19:15;;;;;;;5.63;3.33;;;;;;;;;;4970305;28;20528;-78
2022/08/09 07:21:42;;;;;;;4.93;3.17;;;;;;;;;;4968613;28;20465;-78
2022/08/09 07:24:08;;;;;;;5.55;3.20;;;;;;;;;;4976852;28;20731;-78
2022/08/09 07:26:34;;;;;;;5.32;3.35;;;;;;;;;;4980360;28;20104;-78
2022/08/09 07:29:03;;;;;;;5.40;4.50;;;;;;;;;;4972761;28;20029;-79
2022/08/09 07:31:29;;;;;;;3.75;3.40;;;;;;;;;;4972851;28;20364;-78
2022/08/09 07:33:56;;;;;;;3.95;3.55;;;;;;;;;;4969754;28;20138;-77
2022/08/09 07:36:22;;;;;;;5.50;3.22;;;;;;;;;;4966557;28;20049;-78
2022/08/09 07:38:48;;;;;;;4.68;3.28;;;;;;;;;;4973101;28;20037;-77
2022/08/09 07:41:14;;;;;;;4.40;3.85;;;;;;;;;;4974379;28;20031;-78
2022/08/09 07:43:40;;;;;;;4.72;3.05;;;;;;;;;;4968326;28;20105;-78
2022/08/09 07:46:07;;;;;;;5.90;3.03;;;;;;;;;;4970170;28;20548;-78
2022/08/09 07:48:33;;;;;;;3.50;3.20;;;;;;;;;;4979938;28;20023;-78
2022/08/09 07:51:00;;;;;;;3.83;3.00;;;;;;;;;;4973690;28;20019;-78
2022/08/09 07:53:26;;;;;;;6.55;2.80;;;;;;;;;;4981465;28;20381;-78
2022/08/09 07:55:52;;;;;;;12.02;4.47;;;;;;;;;;4979389;28;20058;-77
2022/08/09 07:58:19;;;;;;;5.15;3.30;;;;;;;;;;4977202;28;20153;-78
2022/08/09 08:00:45;;;;;;;5.40;3.05;;;;;;;;;;4969441;28;20030;-79
2022/08/09 08:03:11;;;;;;;3.45;2.90;;;;;;;;;;4986688;28;20057;-77
2022/08/09 08:05:37;;;;;;;6.13;2.92;;;;;;;;;;4967452;28;20130;-77
2022/08/09 08:08:03;;;;;;;5.25;2.90;;;;;;;;;;4973517;28;20019;-77
2022/08/09 08:10:31;;;;;;;6.82;3.08;;;;;;;;;;4962954;28;20390;-78
2022/08/09 08:12:57;;;;;;;3.67;3.03;;;;;;;;;;4964680;28;20015;-76
2022/08/09 08:15:23;;;;;;;4.68;3.17;;;;;;;;;;4966137;28;20114;-78
2022/08/09 08:17:53;;;;;;;5.10;2.80;;;;;;;;;;4969364;28;20454;-79
2022/08/09 08:20:20;;;;;;;4.55;3.00;;;;;;;;;;4964507;28;20034;-78
2022/08/09 08:22:46;;;;;;;4.80;2.90;;;;;;;;;;4971411;28;20026;-78
2022/08/09 08:25:12;;;;;;;4.70;3.10;;;;;;;;;;4972699;28;20058;-78
2022/08/09 08:27:38;;;;;;;4.72;3.25;;;;;;;;;;4968761;28;20031;-77
2022/08/09 08:30:05;;;;;;;3.47;2.97;;;;;;;;;;4968016;28;20113;-78
2022/08/09 08:32:31;;;;;;;4.88;3.10;;;;;;;;;;4969581;28;20103;-78
2022/08/09 08:34:58;;;;;;;9.00;3.72;;;;;;;;;;4966999;28;20467;-78
2022/08/09 08:37:24;;;;;;;3.78;2.80;;;;;;;;;;4969094;28;20027;-77
2022/08/09 08:39:50;;;;;;;4.80;3.00;;;;;;;;;;4970646;28;20026;-78
2022/08/09 08:42:16;;;;;;;4.20;3.30;;;;;;;;;;4970482;28;20030;-78
2022/08/09 08:44:42;;;;;;;5.13;3.05;;;;;;;;;;4972798;28;21074;-78
2022/08/09 08:47:09;;;;;;;3.97;2.92;;;;;;;;;;4963067;28;20031;-78
2022/08/09 08:49:37;;;;;;;5.78;2.92;;;;;;;;;;4969934;28;20023;-77
2022/08/09 08:52:04;;;;;;;5.07;3.53;;;;;;;;;;4969083;28;20054;-78
2022/08/09 08:54:30;;;;;;;5.25;3.00;;;;;;;;;;4961729;28;20600;-78
2022/08/09 08:56:56;;;;;;;4.93;2.63;;;;;;;;;;4964245;28;20319;-77
2022/08/09 08:59:22;;;;;;;6.10;2.40;;;;;;;;;;4963918;28;20041;-77
2022/08/09 09:01:49;;;;;;;3.47;2.38;;;;;;;;;;4964022;28;20039;-78
2022/08/09 09:04:16;;;;;;;4.47;2.50;;;;;;;;;;4964134;28;20581;-77
2022/08/09 09:06:43;;;;;;;4.80;2.45;;;;;;;;;;4964680;28;20042;-77
2022/08/09 09:09:12;;;;;;;4.22;2.30;;;;;;;;;;4964492;28;20484;-77
2022/08/09 09:11:40;;;;;;;5.80;2.60;;;;;;;;;;4964727;28;20033;-78
2022/08/09 09:14:11;;;;;;;3.15;2.60;;;;;;;;;;4965684;28;20402;-79
2022/08/09 09:16:38;;;;;;;6.85;2.60;;;;;;;;;;4966818;28;20034;-78
2022/08/09 09:19:05;;;;;;;2.60;2.20;;;;;;;;;;4964223;28;21041;-78
2022/08/09 09:21:31;;;;;;;3.08;2.35;;;;;;;;;;4965458;28;20031;-80
2022/08/09 09:24:02;;;;;;;8.60;2.92;;;;;;;;;;4980929;28;20101;-79
2022/08/09 09:26:28;;;;;;;5.10;2.42;;;;;;;;;;4963687;28;20073;-79
2022/08/09 09:28:54;;;;;;;2.97;2.03;;;;;;;;;;4964710;28;20023;-79
2022/08/09 09:31:22;;;;;;;7.20;2.30;;;;;;;;;;4978628;28;20030;-80
2022/08/09 09:33:48;;;;;;;3.88;2.20;;;;;;;;;;4964594;28;20494;-80
2022/08/09 09:36:15;;;;;;;4.47;2.38;;;;;;;;;;4965155;28;20106;-79
2022/08/09 09:38:43;;;;;;;4.82;2.40;;;;;;;;;;4965345;28;20030;-76
2022/08/09 09:41:09;;;;;;;4.63;2.20;;;;;;;;;;4981970;28;20033;-78
2022/08/09 09:43:36;;;;;;;3.95;2.22;;;;;;;;;;4963655;28;20062;-78
2022/08/09 09:46:02;;;;;;;3.03;2.10;;;;;;;;;;4963836;28;20452;-79
2022/08/09 09:48:28;;;;;;;4.80;2.25;;;;;;;;;;4965427;28;20559;-79
2022/08/09 09:50:55;;;;;;;2.20;2.00;;;;;;;;;;4963655;28;20030;-79
2022/08/09 09:53:24;;;;;;;4.07;2.20;;;;;;;;;;4963446;28;20026;-81
2022/08/09 09:56:03;;;;;;;3.30;2.20;;;;;;;;;;4964654;28;20793;-80
2022/08/09 09:58:45;;;;;;;2.92;2.08;;;;;;;;;;4965523;28;20027;-78
2022/08/09 10:01:21;;;;;;;3.17;2.08;;;;;;;;;;4964323;28;20031;-78
2022/08/09 10:03:51;;;;;;;2.88;2.05;;;;;;;;;;4963308;28;20271;-79
2022/08/09 10:06:18;;;;;;;2.63;1.98;;;;;;;;;;4964113;28;20031;-78
2022/08/09 10:08:45;;;;;;;2.72;2.10;;;;;;;;;;4963078;28;20015;-78
2022/08/09 10:11:25;;;;;;;3.10;2.10;;;;;;;;;;4965043;28;20101;-80
2022/08/09 10:13:54;;;;;;;4.20;1.98;;;;;;;;;;4963193;28;20031;-79
2022/08/09 10:16:36;;;;;;;2.40;2.13;;;;;;;;;;4962035;28;20520;-78
2022/08/09 10:19:04;;;;;;;2.63;1.85;;;;;;;;;;4963967;28;20069;-80
2022/08/09 10:21:30;;;;;;;2.90;2.35;;;;;;;;;;4963636;28;20105;-79
2022/08/09 10:24:00;;;;;;;2.60;1.90;;;;;;;;;;4966167;28;20034;-78
2022/08/09 10:26:26;;;;;;;2.80;2.00;;;;;;;;;;4964312;28;20027;-83
2022/08/09 10:28:53;;;;;;;2.10;1.90;;;;;;;;;;4962126;28;20114;-83
2022/08/09 10:31:19;;;;;;;2.70;2.05;;;;;;;;;;4964176;28;20580;-79
2022/08/09 10:33:46;;;;;;;2.30;2.10;;;;;;;;;;4962223;28;20486;-78
2022/08/09 10:36:13;;;;;;;4.68;2.15;;;;;;;;;;4961535;28;20140;-79
2022/08/09 10:38:41;;;;;;;4.32;1.98;;;;;;;;;;4964540;28;20094;-78
2022/08/09 10:41:07;;;;;;;3.15;2.15;;;;;;;;;;4964099;28;20039;-79
2022/08/09 10:43:35;;;;;;;3.17;2.05;;;;;;;;;;4964481;28;20081;-78
2022/08/09 10:46:12;;;;;;;4.80;2.10;;;;;;;;;;4962960;28;20029;-79
2022/08/09 10:48:52;;;;;;;5.80;2.28;;;;;;;;;;4964054;28;20094;-78
2022/08/09 10:51:31;;;;;;;2.97;2.10;;;;;;;;;;4964339;28;20038;-79
2022/08/09 10:53:59;;;;;;;2.85;2.08;;;;;;;;;;4962140;28;20025;-79
2022/08/09 10:56:27;;;;;;;5.07;2.78;;;;;;;;;;4963926;28;20037;-78
2022/08/09 10:58:55;;;;;;;2.50;2.00;;;;;;;;;;4961171;28;20031;-78
2022/08/09 11:01:36;;;;;;;2.85;2.00;;;;;;;;;;4962171;28;20034;-77
2022/08/09 11:04:07;;;;;;;2.50;2.03;;;;;;;;;;4962164;28;20039;-79
2022/08/09 11:06:36;;;;;;;2.78;1.95;;;;;;;;;;4963838;28;20482;-78
2022/08/09 11:09:02;;;;;;;3.67;1.95;;;;;;;;;;4960728;28;20023;-78
2022/08/09 11:11:48;;;;;;;3.63;2.05;;;;;;;;;;4963718;28;20037;-77
2022/08/09 11:14:34;;;;;;;2.58;2.00;;;;;;;;;;4962794;28;20034;-77
2022/08/09 11:17:20;;;;;;;3.60;2.20;;;;;;;;;;4966719;28;20033;-77
2022/08/09 11:20:06;;;;;;;2.63;1.95;;;;;;;;;;4958560;28;20062;-78
2022/08/09 11:22:55;;;;;;;2.55;2.10;;;;;;;;;;4979698;28;20062;-78
2022/08/09 11:25:34;;;;;;;4.65;3.00;;;;;;;;;;4957508;28;20102;-76
2022/08/09 11:28:01;;;;;;;2.80;2.15;;;;;;;;;;4966404;28;20389;-77
2022/08/09 11:30:28;;;;;;;2.25;1.80;;;;;;;;;;4966991;28;20508;-78
2022/08/09 11:33:01;;;;;;;2.95;2.55;;;;;;;;;;4965465;28;20038;-78
2022/08/09 11:35:46;;;;;;;2.28;2.08;;;;;;;;;;4965573;28;20043;-77
2022/08/09 11:38:23;;;;;;;2.60;2.10;;;;;;;;;;4963918;28;20066;-78
2022/08/09 11:40:50;;;;;;;2.72;2.05;;;;;;;;;;4964419;28;20567;-78
2022/08/09 11:43:25;;;;;;;2.53;2.05;;;;;;;;;;4963334;28;20110;-77
2022/08/09 11:45:56;;;;;;;2.70;1.90;;;;;;;;;;4962342;28;20114;-76
2022/08/09 11:48:29;;;;;;;3.65;2.17;;;;;;;;;;4961799;28;20031;-77
2022/08/09 11:51:01;;;;;;;2.85;2.20;;;;;;;;;;4961986;28;20378;-81
2022/08/09 11:53:27;;;;;;;2.75;1.95;;;;;;;;;;4966610;28;20025;-79
2022/08/09 11:55:54;;;;;;;2.40;1.92;;;;;;;;;;4963881;28;20039;-78
2022/08/09 11:58:22;;;;;;;2.92;2.20;;;;;;;;;;4966856;28;20058;-78
2022/08/09 12:00:52;;;;;;;2.75;1.98;;;;;;;;;;4965781;28;20030;-77
2022/08/09 12:03:20;;;;;;;4.07;2.10;;;;;;;;;;4965787;28;20098;-79
2022/08/09 12:05:46;;;;;;;2.53;2.00;;;;;;;;;;4963889;28;20393;-78
2022/08/09 12:08:13;;;;;;;3.65;1.83;;;;;;;;;;4965703;28;20516;-79
2022/08/09 12:10:44;;;;;;;3.83;2.08;;;;;;;;;;4962676;28;20705;-79
2022/08/09 12:13:10;;;;;;;2.35;2.00;;;;;;;;;;4966321;28;20018;-78
2022/08/09 12:15:36;;;;;;;3.17;2.22;;;;;;;;;;4963404;28;20117;-79
2022/08/09 12:18:03;;;;;;;4.63;2.20;;;;;;;;;;4965268;28;20023;-78
2022/08/09 12:20:33;;;;;;;2.78;2.00;;;;;;;;;;4963746;28;20560;-78
2022/08/09 12:23:02;;;;;;;3.83;2.08;;;;;;;;;;4965759;28;20027;-78
2022/08/09 12:25:31;;;;;;;2.78;2.17;;;;;;;;;;4962044;28;20034;-77
2022/08/09 12:28:15;;;;;;;2.42;1.90;;;;;;;;;;4965077;28;20021;-78
2022/08/09 12:30:41;;;;;;;2.93;1.83;;;;;;;;;;4965712;28;20027;-77
2022/08/09 12:33:08;;;;;;;2.75;1.80;;;;;;;;;;4962394;28;20019;-78
2022/08/09 12:35:35;;;;;;;3.65;2.05;;;;;;;;;;4962906;28;20027;-78
2022/08/09 12:38:16;;;;;;;2.20;2.00;;;;;;;;;;4964377;28;20097;-78
2022/08/09 12:40:46;;;;;;;3.00;1.83;;;;;;;;;;4964567;28;20385;-78
2022/08/09 12:43:16;;;;;;;2.17;1.90;;;;;;;;;;4964600;28;20029;-79
2022/08/09 12:45:44;;;;;;;2.10;1.90;;;;;;;;;;4963162;28;20110;-78
2022/08/09 12:48:10;;;;;;;2.75;1.92;;;;;;;;;;4960856;28;20068;-77
2022/08/09 12:50:37;;;;;;;2.35;1.80;;;;;;;;;;4962076;28;20027;-78
2022/08/09 12:53:03;;;;;;;2.20;1.92;;;;;;;;;;4964198;28;20077;-77
2022/08/09 12:55:31;;;;;;;3.05;1.73;;;;;;;;;;4962226;28;20026;-77
2022/08/09 12:57:57;;;;;;;2.40;1.90;;;;;;;;;;4963194;28;20035;-77
2022/08/09 13:00:24;;;;;;;2.10;1.90;;;;;;;;;;4963415;28;20023;-78
2022/08/09 13:02:52;;;;;;;3.03;1.80;;;;;;;;;;4962548;28;20042;-78
2022/08/09 13:05:18;;;;;;;3.30;2.13;;;;;;;;;;4963764;28;20518;-78
2022/08/09 13:08:03;;;;;;;3.95;1.90;;;;;;;;;;4976828;28;20019;-79
2022/08/09 13:10:29;;;;;;;2.60;1.90;;;;;;;;;;4965211;28;20026;-78
2022/08/09 13:12:59;;;;;;;2.08;1.80;;;;;;;;;;4961885;28;20027;-77
2022/08/09 13:15:25;;;;;;;2.55;2.08;;;;;;;;;;4962563;28;20031;-79
2022/08/09 13:17:51;;;;;;;2.33;1.50;;;;;;;;;;4962652;28;20031;-77
2022/08/09 13:20:31;;;;;;;2.08;1.73;;;;;;;;;;4964279;28;20037;-78
2022/08/09 13:22:59;;;;;;;3.33;1.88;;;;;;;;;;4963964;28;20046;-79
2022/08/09 13:25:25;;;;;;;3.38;2.80;;;;;;;;;;4964790;28;20055;-79
2022/08/09 13:27:51;;;;;;;2.80;2.10;;;;;;;;;;4965236;28;20034;-79
2022/08/09 13:30:19;;;;;;;3.20;1.90;;;;;;;;;;4962258;28;20038;-79
2022/08/09 13:32:49;;;;;;;3.33;1.80;;;;;;;;;;4963783;28;20086;-79
2022/08/09 13:35:17;;;;;;;3.60;1.80;;;;;;;;;;4961090;28;20441;-79
2022/08/09 13:37:44;;;;;;;1.90;1.70;;;;;;;;;;4964036;28;20023;-79
2022/08/09 13:40:11;;;;;;;2.15;1.70;;;;;;;;;;4963543;28;20110;-80
2022/08/09 13:42:37;;;;;;;1.80;1.63;;;;;;;;;;4964719;28;20691;-78
2022/08/09 13:45:04;;;;;;;2.42;1.60;;;;;;;;;;4962740;28;20026;-79
2022/08/09 13:47:31;;;;;;;2.40;1.90;;;;;;;;;;4963775;28;20031;-79
2022/08/09 13:49:58;;;;;;;3.22;1.60;;;;;;;;;;4961708;28;20031;-79
2022/08/09 13:52:25;;;;;;;2.35;2.15;;;;;;;;;;4964006;28;20599;-79
2022/08/09 13:54:51;;;;;;;2.78;1.60;;;;;;;;;;4962647;28;20023;-79
2022/08/09 13:57:17;;;;;;;1.75;1.60;;;;;;;;;;4963484;28;20569;-79
2022/08/09 13:59:43;;;;;;;3.75;1.80;;;;;;;;;;4963470;28;20034;-78
2022/08/09 14:02:09;;;;;;;2.35;1.90;;;;;;;;;;4962038;28;20394;-78
2022/08/09 14:04:36;;;;;;;2.33;1.80;;;;;;;;;;4961562;28;20043;-77
2022/08/09 14:07:02;;;;;;;5.05;1.98;;;;;;;;;;4962620;28;20038;-78
2022/08/09 14:09:28;;;;;;;4.90;2.00;;;;;;;;;;4960788;28;20034;-77
2022/08/09 14:11:59;;;;;;;2.67;1.80;;;;;;;;;;4963069;28;20023;-77
2022/08/09 14:14:25;;;;;;;2.97;1.95;;;;;;;;;;4963676;28;20086;-79
2022/08/09 14:16:52;;;;;;;4.53;1.90;;;;;;;;;;4965809;28;20508;-79
2022/08/09 14:19:18;;;;;;;3.05;2.13;;;;;;;;;;4962777;28;20283;-79
2022/08/09 14:21:44;;;;;;;1.83;1.50;;;;;;;;;;4967989;28;20137;-79
2022/08/09 14:24:13;;;;;;;1.88;1.65;;;;;;;;;;4964678;28;20107;-77
2022/08/09 14:26:40;;;;;;;2.22;1.90;;;;;;;;;;4962626;28;20125;-79
2022/08/09 14:29:08;;;;;;;2.90;1.80;;;;;;;;;;4962258;28;20031;-78
2022/08/09 14:31:35;;;;;;;3.85;2.00;;;;;;;;;;4964214;28;20093;-78
2022/08/09 14:34:01;;;;;;;2.05;1.75;;;;;;;;;;4963056;28;20111;-78
2022/08/09 14:36:28;;;;;;;2.75;2.05;;;;;;;;;;4965758;28;20026;-78
2022/08/09 14:38:54;;;;;;;2.28;1.65;;;;;;;;;;4963947;28;20042;-78
2022/08/09 14:41:21;;;;;;;2.00;1.70;;;;;;;;;;4963556;28;20031;-77
2022/08/09 14:43:47;;;;;;;3.75;1.83;;;;;;;;;;4961811;28;20153;-77
2022/08/09 14:46:13;;;;;;;2.08;1.88;;;;;;;;;;4965547;28;20509;-77
2022/08/09 14:48:40;;;;;;;2.70;1.90;;;;;;;;;;4964863;28;20446;-77